createdAt,value
2022-09-12T04:16:41.017Z,100185.16
2022-09-12T04:19:07.656Z,100180.75
2022-09-12T04:21:34.904Z,100187.88
2022-09-12T04:24:01.572Z,100196.75
2022-09-12T04:26:29.750Z,100193.25
2022-09-12T04:28:57.520Z,100196.91
2022-09-12T04:31:25.169Z,100198.75
2022-09-12T04:33:56.640Z,100191.91
2022-09-12T04:36:24.306Z,100193.84
2022-09-12T04:38:52.298Z,100193.84
2022-09-12T04:41:27.513Z,100190.28
2022-09-12T04:44:02.092Z,100189.22
2022-09-12T04:46:30.934Z,100183.06
2022-09-12T04:48:57.775Z,100180.59
2022-09-12T04:51:27.848Z,100190.19
2022-09-12T04:53:58.159Z,100186.78
2022-09-12T04:56:25.528Z,100188.47
2022-09-12T04:58:52.171Z,100192.91
2022-09-12T05:01:21.396Z,100189.38
2022-09-12T05:03:49.170Z,100188.78
2022-09-12T05:06:25.842Z,100187.97
2022-09-12T05:09:01.803Z,100194.81
2022-09-12T05:11:52.984Z,100182.44
2022-09-12T05:14:19.283Z,100190.22
2022-09-12T05:16:49.232Z,100190.13
2022-09-12T05:19:16.656Z,100194.47
2022-09-12T05:21:44.419Z,100188.97
2022-09-12T05:24:11.543Z,100200.41
2022-09-12T05:26:38.350Z,100203.31
2022-09-12T05:29:06.076Z,100192.81
2022-09-12T05:31:32.834Z,100200.78
2022-09-12T05:33:59.370Z,100199.97
2022-09-12T05:36:29.167Z,100198.09
2022-09-12T05:38:56.508Z,100198.13
2022-09-12T05:41:25.727Z,100197.03
2022-09-12T05:44:22.807Z,100206.75
2022-09-12T05:47:00.262Z,100207.41
2022-09-12T05:49:26.936Z,100203.84
2022-09-12T05:51:53.415Z,100209.88
2022-09-12T05:54:21.170Z,100210.50
2022-09-12T05:56:48.256Z,100212.31
2022-09-12T05:59:20.819Z,100213.84
2022-09-12T06:01:48.623Z,100215.22
2022-09-12T06:04:15.782Z,100208.19
2022-09-12T06:06:47.265Z,100210.72
2022-09-12T06:09:15.780Z,100205.09
2022-09-12T06:11:43.123Z,100209.28
2022-09-12T06:14:14.330Z,100213.25
2022-09-12T06:16:44.508Z,100216.00
2022-09-12T06:19:16.097Z,100213.19
2022-09-12T06:25:02.007Z,100218.81
2022-09-12T06:27:56.627Z,100216.56
2022-09-12T06:33:57.338Z,100213.56
2022-09-12T06:36:48.533Z,100214.75
2022-09-12T06:39:35.155Z,100206.56
2022-09-12T06:46:49.759Z,100201.59
2022-09-12T06:49:18.751Z,100198.47
2022-09-12T06:51:46.401Z,100195.94
2022-09-12T06:54:14.339Z,100206.84
2022-09-12T06:56:41.036Z,100198.66
2022-09-12T06:59:07.546Z,100197.28
2022-09-12T07:01:34.366Z,100195.75
2022-09-12T07:04:05.437Z,100192.69
2022-09-12T07:06:37.729Z,100193.03
2022-09-12T07:09:06.763Z,100192.50
2022-09-12T07:11:35.353Z,100193.56
2022-09-12T07:14:03.875Z,100196.88
2022-09-12T07:16:37.966Z,100204.47
2022-09-12T07:19:06.018Z,100202.53
2022-09-12T07:21:32.940Z,100200.28
2022-09-12T07:23:59.464Z,100203.03
2022-09-12T07:42:59.607Z,100195.47
2022-09-12T07:50:09.315Z,100183.34
2022-09-12T07:52:41.933Z,100178.97
2022-09-12T07:56:38.239Z,100178.81
2022-09-12T07:59:06.157Z,100182.09
2022-09-12T08:01:43.251Z,100185.91
2022-09-12T08:04:09.848Z,100189.97
2022-09-12T08:06:36.910Z,100189.66
2022-09-12T08:09:04.252Z,100186.50
2022-09-12T08:11:31.027Z,100190.25
2022-09-12T08:13:58.232Z,100194.66
2022-09-12T08:16:27.701Z,100200.59
2022-09-12T08:18:54.521Z,100197.59
2022-09-12T08:21:23.716Z,100195.63
2022-09-12T08:23:59.272Z,100197.75
2022-09-12T08:26:26.003Z,100189.41
2022-09-12T08:28:54.557Z,100184.03
2022-09-12T08:31:23.430Z,100187.75
2022-09-12T08:33:50.894Z,100190.06
2022-09-12T08:36:22.867Z,100191.25
2022-09-12T08:38:59.305Z,100200.00
2022-09-12T08:41:35.428Z,100192.47
2022-09-12T08:44:34.797Z,100190.31
2022-09-12T08:47:10.344Z,100200.00
2022-09-12T08:49:51.601Z,100191.59
2022-09-12T08:52:29.561Z,100193.56
2022-09-12T08:54:56.876Z,100198.75
2022-09-12T08:57:24.267Z,100197.94
2022-09-12T08:59:52.885Z,100197.38
2022-09-12T09:02:19.346Z,100195.31
2022-09-12T09:05:34.228Z,100198.66
2022-09-12T09:08:19.586Z,100197.06
2022-09-12T09:11:08.538Z,100190.75
2022-09-12T09:14:31.641Z,100191.44
2022-09-12T09:17:00.460Z,100190.06
2022-09-12T09:19:36.299Z,100188.84
2022-09-12T09:22:16.037Z,100189.72
2022-09-12T09:24:48.970Z,100187.91
2022-09-12T09:27:39.277Z,100180.00
2022-09-12T09:30:16.062Z,100176.28
2022-09-12T09:32:47.588Z,100175.66
2022-09-12T09:35:22.929Z,100174.13
2022-09-12T09:38:01.581Z,100177.00
2022-09-12T09:40:37.183Z,100175.09
2022-09-12T09:43:19.907Z,100169.16
2022-09-12T09:45:47.926Z,100172.88
2022-09-12T09:48:35.301Z,100168.13
2022-09-12T09:51:03.957Z,100169.03
2022-09-12T09:57:46.680Z,100168.88
2022-09-12T10:00:27.317Z,100163.41
2022-09-12T10:03:04.854Z,100162.56
2022-09-12T10:05:35.658Z,100166.28
2022-09-12T10:08:35.300Z,100159.38
2022-09-12T10:11:18.551Z,100155.59
2022-09-12T10:17:58.774Z,100149.25
2022-09-12T10:24:48.895Z,100146.38
2022-09-12T10:27:28.155Z,100141.56
2022-09-12T10:29:56.631Z,100139.78
2022-09-12T10:32:31.131Z,100125.03
2022-09-12T10:35:08.948Z,100131.38
2022-09-12T10:37:39.513Z,100133.78
2022-09-12T10:40:59.916Z,100124.53
2022-09-12T10:44:28.911Z,100117.13
2022-09-12T10:47:21.512Z,100121.81
2022-09-12T10:50:30.870Z,100109.97
2022-09-12T10:53:14.693Z,100111.19
2022-09-12T10:56:12.268Z,100116.34
2022-09-12T10:59:19.411Z,100114.06
2022-09-12T11:01:50.572Z,100112.97
2022-09-12T11:05:09.565Z,100109.53
2022-09-12T11:07:46.764Z,100106.56
2022-09-12T11:11:16.279Z,100109.53
2022-09-12T11:14:15.169Z,100102.25
2022-09-12T11:16:52.361Z,100109.84
2022-09-12T11:23:40.592Z,100102.13
2022-09-12T11:27:01.843Z,100098.38
2022-09-12T11:29:49.484Z,100096.19
2022-09-12T11:32:36.375Z,100088.66
2022-09-12T11:35:29.443Z,100082.91
2022-09-12T11:38:14.887Z,100084.00
2022-09-12T11:40:48.329Z,100075.03
2022-09-12T11:43:54.372Z,100072.06
2022-09-12T11:51:33.835Z,100059.47
2022-09-12T11:54:06.589Z,100062.16
2022-09-12T11:56:37.164Z,100057.88
2022-09-12T11:59:31.782Z,100062.19
2022-09-12T12:02:00.154Z,100063.69
2022-09-12T12:04:37.723Z,100052.47
2022-09-12T12:07:07.835Z,100057.00
2022-09-12T12:09:34.496Z,100050.03
2022-09-12T12:12:54.672Z,100047.38
2022-09-12T12:15:22.912Z,100043.81
2022-09-12T12:18:15.215Z,100035.59
2022-09-12T12:20:48.114Z,100031.44
2022-09-12T12:23:34.778Z,100033.00
2022-09-12T12:26:04.785Z,100028.59
2022-09-12T12:28:49.442Z,100030.50
2022-09-12T12:31:17.305Z,100018.06
2022-09-12T12:33:43.887Z,100021.97
2022-09-12T12:36:29.106Z,100016.19
2022-09-12T12:38:55.547Z,100013.06
2022-09-12T12:41:22.691Z,100018.81
2022-09-12T12:43:51.205Z,100010.53
2022-09-12T12:46:23.187Z,99996.69
2022-09-12T12:48:52.625Z,100003.16
2022-09-12T12:51:46.429Z,99993.56
2022-09-12T12:54:29.831Z,99982.00
2022-09-12T12:57:29.878Z,99977.97
2022-09-12T13:00:02.003Z,99984.50
2022-09-12T13:02:37.236Z,99972.47
2022-09-12T13:05:16.279Z,99975.88
2022-09-12T13:07:44.895Z,99965.38
2022-09-12T13:10:24.087Z,99953.50
2022-09-12T13:16:52.880Z,99942.16
2022-09-12T13:19:26.214Z,99955.44
2022-09-12T13:22:00.292Z,99946.53
2022-09-12T13:24:27.016Z,99954.06
2022-09-12T13:26:53.809Z,99955.31
2022-09-12T13:30:23.039Z,99943.38
2022-09-12T13:32:49.855Z,99938.81
2022-09-12T13:35:42.793Z,99938.91
2022-09-12T13:38:44.504Z,99930.66
2022-09-12T13:41:53.267Z,99935.72
2022-09-12T13:44:21.627Z,99939.69
2022-09-12T13:46:49.023Z,99930.72
2022-09-12T13:49:37.000Z,99931.69
2022-09-12T13:52:07.192Z,99925.22
2022-09-12T13:54:58.735Z,99925.09
2022-09-12T13:57:37.572Z,99916.72
2022-09-12T14:00:20.229Z,99911.34
2022-09-12T14:02:48.142Z,99909.38
2022-09-12T14:05:26.192Z,99907.16
2022-09-12T14:08:08.648Z,99908.22
2022-09-12T14:10:39.666Z,99908.09
2022-09-12T14:13:11.962Z,99899.47
2022-09-12T14:15:44.188Z,99903.16
2022-09-12T14:18:38.653Z,99896.59
2022-09-12T14:21:11.228Z,99883.84
2022-09-12T14:23:43.162Z,99884.41
2022-09-12T14:26:13.316Z,99882.88
2022-09-12T14:29:05.609Z,99888.44
2022-09-12T14:31:37.652Z,99886.16
2022-09-12T14:34:18.839Z,99889.19
2022-09-12T14:36:58.909Z,99873.63
2022-09-12T14:39:30.861Z,99873.97
2022-09-12T14:42:07.201Z,99878.69
2022-09-12T14:44:35.486Z,99874.38
2022-09-12T14:47:13.764Z,99875.78
2022-09-12T14:49:48.541Z,99867.31
2022-09-12T14:52:23.367Z,99870.44
2022-09-12T14:55:16.441Z,99860.88
2022-09-12T14:58:27.597Z,99862.88
2022-09-12T15:01:22.931Z,99848.19
2022-09-12T15:03:51.917Z,99844.19
2022-09-12T15:06:30.356Z,99839.91
2022-09-12T15:09:54.270Z,99844.94
2022-09-12T15:12:20.908Z,99840.75
2022-09-12T15:14:47.642Z,99841.00
2022-09-12T15:17:14.280Z,99840.16
2022-09-12T15:19:40.768Z,99843.22
2022-09-12T15:22:09.509Z,99842.50
2022-09-12T15:24:39.315Z,99840.28
2022-09-12T15:27:31.711Z,99833.72
2022-09-12T15:29:58.985Z,99829.88
2022-09-12T15:32:28.404Z,99834.84
2022-09-12T15:34:55.227Z,99834.25
2022-09-12T15:37:49.617Z,99831.19
2022-09-12T15:40:16.848Z,99827.22
2022-09-12T15:42:43.877Z,99826.44
2022-09-12T15:45:18.632Z,99819.50
2022-09-12T15:47:45.290Z,99822.72
2022-09-12T15:50:11.786Z,99825.91
2022-09-12T15:52:39.154Z,99816.44
2022-09-12T15:55:09.752Z,99813.16
2022-09-12T15:57:38.135Z,99822.06
2022-09-12T16:00:05.886Z,99823.69
2022-09-12T16:02:38.284Z,99819.66
2022-09-12T16:05:05.849Z,99816.41
2022-09-12T16:07:32.321Z,99819.22
2022-09-12T16:09:58.809Z,99816.91
2022-09-12T16:12:25.270Z,99814.97
2022-09-12T16:14:59.358Z,99812.41
2022-09-12T16:17:25.809Z,99805.19
2022-09-12T16:19:53.552Z,99796.50
2022-09-12T16:22:19.987Z,99794.41
2022-09-12T16:24:46.448Z,99796.69
2022-09-12T16:27:12.962Z,99795.19
2022-09-12T16:29:39.455Z,99796.66
2022-09-12T16:36:30.335Z,99798.56
2022-09-12T16:38:56.831Z,99791.16
2022-09-12T16:41:25.079Z,99792.09
2022-09-12T16:43:52.123Z,99788.84
2022-09-12T16:46:21.238Z,99783.72
2022-09-12T16:48:52.453Z,99783.72
2022-09-12T16:51:25.890Z,99782.34
2022-09-12T16:53:52.638Z,99784.00
2022-09-12T16:56:19.376Z,99786.94
2022-09-12T16:58:46.431Z,99788.25
2022-09-12T17:01:16.423Z,99788.38
2022-09-12T17:03:43.415Z,99786.41
2022-09-12T17:06:16.494Z,99790.53
2022-09-12T17:08:45.473Z,99794.75
2022-09-12T17:11:34.028Z,99784.31
2022-09-12T17:14:06.520Z,99789.13
2022-09-12T17:16:35.776Z,99783.63
2022-09-12T17:19:02.532Z,99790.25
2022-09-12T17:21:29.075Z,99788.84
2022-09-12T17:23:55.936Z,99784.88
2022-09-12T17:26:28.487Z,99781.78
2022-09-12T17:28:55.182Z,99783.16
2022-09-12T17:32:16.940Z,99783.47
2022-09-12T17:35:34.246Z,99770.16
2022-09-12T17:38:01.297Z,99787.78
2022-09-12T17:40:48.658Z,99789.91
2022-09-12T17:44:09.659Z,99783.53
2022-09-12T17:46:41.129Z,99774.47
2022-09-12T17:49:12.252Z,99781.09
2022-09-12T17:51:40.635Z,99784.22
2022-09-12T17:54:11.779Z,99791.38
2022-09-12T17:56:39.099Z,99788.53
2022-09-12T17:59:07.778Z,99784.25
2022-09-12T18:01:57.938Z,99790.03
2022-09-12T18:04:24.672Z,99791.78
2022-09-12T18:06:51.167Z,99795.78
2022-09-12T18:09:26.987Z,99792.94
2022-09-12T18:11:53.682Z,99788.94
2022-09-12T18:14:20.850Z,99788.94
2022-09-12T18:16:47.936Z,99791.50
2022-09-12T18:19:16.753Z,99793.44
2022-09-12T18:22:13.340Z,99797.69
2022-09-12T18:24:41.853Z,99798.00
2022-09-12T18:27:08.430Z,99790.53
2022-09-12T18:29:34.900Z,99791.50
2022-09-12T18:32:01.611Z,99796.69
2022-09-12T18:34:28.268Z,99790.38
2022-09-12T18:36:54.847Z,99789.78
2022-09-12T18:40:02.571Z,99785.75
2022-09-12T18:45:17.494Z,99783.66
2022-09-12T18:47:48.663Z,99791.31
2022-09-12T18:50:15.239Z,99793.28
2022-09-12T18:52:41.877Z,99796.56
2022-09-12T18:55:09.124Z,99795.91
2022-09-12T18:57:35.606Z,99798.69
2022-09-12T19:00:04.152Z,99796.50
2022-09-12T19:02:34.912Z,99797.81
2022-09-12T19:05:03.558Z,99793.66
2022-09-12T19:07:29.991Z,99792.75
2022-09-12T19:09:56.392Z,99795.94
2022-09-12T19:12:22.883Z,99803.09
2022-09-12T19:14:49.324Z,99799.09
2022-09-12T19:17:17.438Z,99804.44
2022-09-12T19:19:46.034Z,99798.91
2022-09-12T19:22:44.246Z,99797.97
2022-09-12T19:25:23.909Z,99798.53
2022-09-12T19:27:50.347Z,99796.19
2022-09-12T19:30:16.981Z,99797.38
2022-09-12T19:32:44.523Z,99792.28
2022-09-12T19:35:12.789Z,99793.47
2022-09-12T19:37:39.237Z,99794.66
2022-09-12T19:40:07.391Z,99794.09
2022-09-12T19:42:34.056Z,99799.44
2022-09-12T19:45:00.535Z,99794.75
2022-09-12T19:47:28.164Z,99792.53
2022-09-12T19:49:54.673Z,99790.69
2022-09-12T19:52:21.163Z,99792.53
2022-09-12T19:54:48.041Z,99790.63
2022-09-12T19:57:14.413Z,99785.19
2022-09-12T19:59:41.971Z,99781.56
2022-09-12T20:02:08.541Z,99775.16
2022-09-12T20:04:35.175Z,99765.25
2022-09-12T20:07:01.683Z,99755.13
2022-09-12T20:09:28.175Z,99747.38
2022-09-12T20:11:54.583Z,99747.56
2022-09-12T20:14:22.132Z,99745.78
2022-09-12T20:17:13.728Z,99739.16
2022-09-12T20:19:40.237Z,99743.84
2022-09-12T20:22:07.438Z,99741.19
2022-09-12T20:24:34.527Z,99746.69
2022-09-12T20:27:01.060Z,99746.16
2022-09-12T20:29:27.538Z,99752.03
2022-09-12T20:31:54.044Z,99744.00
2022-09-12T20:34:21.327Z,99751.56
2022-09-12T20:36:48.368Z,99743.19
2022-09-12T20:39:19.755Z,99738.06
2022-09-12T20:41:46.875Z,99740.38
2022-09-12T20:44:13.734Z,99740.34
2022-09-12T20:46:40.857Z,99730.13
2022-09-12T20:49:08.814Z,99730.63
2022-09-12T20:51:36.436Z,99721.69
2022-09-12T20:54:07.950Z,99724.44
2022-09-12T20:56:36.262Z,99724.22
2022-09-12T20:59:04.362Z,99718.00
2022-09-12T21:01:31.687Z,99722.56
2022-09-12T21:03:59.739Z,99721.38
2022-09-12T21:06:26.798Z,99723.09
2022-09-12T21:08:54.717Z,99718.97
2022-09-12T21:11:21.415Z,99714.75
2022-09-12T21:13:47.901Z,99720.84
2022-09-12T21:16:17.209Z,99717.50
2022-09-12T21:18:44.429Z,99718.38
2022-09-12T21:21:13.554Z,99721.69
2022-09-12T21:23:41.178Z,99714.03
2022-09-12T21:26:08.492Z,99721.16
2022-09-12T21:28:35.715Z,99725.22
2022-09-12T21:31:02.293Z,99722.59
2022-09-12T21:33:29.844Z,99723.16
2022-09-12T21:36:02.644Z,99724.19
2022-09-12T21:38:30.616Z,99720.41
2022-09-12T21:41:05.236Z,99722.34
2022-09-12T21:43:31.639Z,99725.94
2022-09-12T21:45:59.375Z,99723.38
2022-09-12T21:48:26.413Z,99726.31
2022-09-12T21:50:52.875Z,99732.66
2022-09-12T21:53:19.409Z,99731.72
2022-09-12T21:55:45.928Z,99733.16
2022-09-12T21:58:12.347Z,99722.81
